Oldwick, New Jersey
Current Conditions -  °F | °C
As of 2:53 PM on Thursday 18 Dec 2014 (Local Time) from KSMQ Reporting Station
Overcast Overcast  
Wind Chill: 37°   Ceiling: 4400
Heat Index: 42°   Visibility: 10mi
Dew Point: 23°   Wind: 9mph
Humidity: 47%   Direction: 300°WNW
Pressure: 29.96"   Gusts: 22mph
Location:  40.67°N, 74.75°W
Report Text: KSMQ 181953Z AUTO 30008G19KT 10SM OVC044 06/M05 A2996 RMK AO2 SLP146 T00561050
Loading
Personal Weather Stations






























Interactive Weather Map New forecast layout! Learn more

10-Day Weather Forecast

Advertisements
Track Severe Weather on mobile